Time;durP1;ratioP1;P1;durP2;ratioP2;P2;SDS_P1;SDS_P2;PMS_P1;PMS_P2;Temp;Humidity;BMP_temperature;BMP_pressure;BME280_temperature;BME280_humidity;BME280_pressure;Samples;Min_cycle;Max_cycle;Signal;HPM_P1;HPM_P2
2021/04/20 00:01:03;;;;;;;225.90;208.23;;;7.10;99.90;;;;;;5092870;28;20458;-61
2021/04/20 00:03:29;;;;;;;198.57;181.90;;;7.10;99.90;;;;;;5090128;28;20858;-63
2021/04/20 00:05:56;;;;;;;224.53;206.77;;;7.10;99.90;;;;;;5092729;28;20438;-62
2021/04/20 00:08:23;;;;;;;260.70;241.30;;;7.10;99.90;;;;;;5093266;28;20458;-62
2021/04/20 00:10:49;;;;;;;271.77;252.57;;;7.10;99.90;;;;;;5089507;28;20530;-62
2021/04/20 00:13:16;;;;;;;432.80;406.90;;;7.00;99.90;;;;;;5093754;28;20934;-62
2021/04/20 00:15:44;;;;;;;413.27;388.10;;;7.00;99.90;;;;;;5093163;28;20537;-62
2021/04/20 00:18:10;;;;;;;385.00;360.93;;;6.90;99.90;;;;;;5092412;28;20446;-62
2021/04/20 00:20:37;;;;;;;126.50;102.37;;;7.00;99.90;;;;;;5093671;28;20454;-61
2021/04/20 00:23:05;;;;;;;271.00;252.17;;;6.80;99.90;;;;;;5093704;28;20445;-62
2021/04/20 00:25:33;;;;;;;236.27;218.27;;;6.80;99.90;;;;;;5093656;28;20457;-62
2021/04/20 00:27:59;;;;;;;306.90;286.63;;;6.80;99.90;;;;;;5092620;28;20557;-62
2021/04/20 00:30:25;;;;;;;255.27;236.47;;;6.80;99.90;;;;;;5093459;28;20556;-61
2021/04/20 00:32:52;;;;;;;230.17;212.60;;;6.70;99.90;;;;;;5093647;28;20464;-62
2021/04/20 00:35:24;;;;;;;393.23;369.47;;;6.70;99.90;;;;;;5092690;28;21035;-61
2021/04/20 00:37:50;;;;;;;290.97;271.23;;;6.70;99.90;;;;;;5092259;28;20640;-61
2021/04/20 00:40:18;;;;;;;262.77;243.87;;;6.70;99.90;;;;;;5092515;28;20601;-61
2021/04/20 00:42:47;;;;;;;242.67;225.00;;;6.70;99.90;;;;;;5093493;28;20480;-63
2021/04/20 00:45:14;;;;;;;111.10;80.10;;;6.60;99.90;;;;;;5092725;28;20453;-61
2021/04/20 00:47:41;;;;;;;322.50;301.67;;;6.50;99.90;;;;;;5091696;28;20494;-61
2021/04/20 00:50:09;;;;;;;217.23;200.23;;;6.50;99.90;;;;;;5092879;28;20484;-63
2021/04/20 00:52:35;;;;;;;294.33;274.23;;;6.50;99.90;;;;;;5092912;28;20462;-62
2021/04/20 00:55:01;;;;;;;252.00;233.70;;;6.50;99.90;;;;;;5093165;28;20480;-61
2021/04/20 00:57:28;;;;;;;270.33;251.17;;;6.50;99.90;;;;;;5092033;28;20446;-62
2021/04/20 00:59:55;;;;;;;458.50;430.63;;;6.50;99.90;;;;;;5093268;28;21134;-61
2021/04/20 01:02:22;;;;;;;320.77;299.97;;;6.50;99.90;;;;;;5091780;28;20807;-64
2021/04/20 01:04:48;;;;;;;139.83;125.70;;;6.40;99.90;;;;;;5093049;28;20539;-61
2021/04/20 01:07:16;;;;;;;244.60;226.73;;;6.40;99.90;;;;;;5092202;28;20472;-62
2021/04/20 01:09:44;;;;;;;192.57;176.47;;;6.40;99.90;;;;;;5092469;28;20482;-61
2021/04/20 01:12:11;;;;;;;213.00;195.90;;;6.30;99.90;;;;;;5091801;28;20875;-61
2021/04/20 01:14:37;;;;;;;310.07;290.07;;;6.30;99.90;;;;;;5090622;28;20985;-62
2021/04/20 01:17:05;;;;;;;262.10;243.23;;;6.30;99.90;;;;;;5092066;28;20460;-61
2021/04/20 01:19:32;;;;;;;234.67;217.20;;;6.30;99.90;;;;;;5092123;28;20510;-61
2021/04/20 01:22:00;;;;;;;129.50;115.70;;;6.30;99.90;;;;;;5093066;28;20452;-61
2021/04/20 01:24:29;;;;;;;245.00;226.67;;;6.30;99.90;;;;;;5092078;28;20491;-62
2021/04/20 01:26:57;;;;;;;170.77;155.30;;;6.30;99.90;;;;;;5091954;28;20521;-61
2021/04/20 01:29:24;;;;;;;180.67;165.00;;;6.30;99.90;;;;;;5091606;28;20568;-62
2021/04/20 01:31:50;;;;;;;164.37;148.57;;;6.30;99.90;;;;;;5092657;28;20502;-61
2021/04/20 01:34:18;;;;;;;198.50;181.83;;;6.30;99.90;;;;;;5092252;28;20560;-62
2021/04/20 01:36:44;;;;;;;119.93;99.60;;;6.30;99.90;;;;;;5090660;28;20449;-61
2021/04/20 01:42:38;;;;;;;187.67;171.67;;;6.10;99.90;;;;;;5079415;22;20482;-63
2021/04/20 01:45:06;;;;;;;157.73;142.57;;;6.20;99.90;;;;;;5068274;28;20469;-62
2021/04/20 01:47:33;;;;;;;269.47;249.90;;;6.20;99.90;;;;;;5061386;28;20447;-62
2021/04/20 01:50:00;;;;;;;96.80;50.50;;;6.10;99.90;;;;;;5070668;28;20483;-62
2021/04/20 01:52:27;;;;;;;116.17;99.83;;;6.10;99.90;;;;;;5066749;28;20954;-61
2021/04/20 01:54:54;;;;;;;124.00;106.70;;;6.00;99.90;;;;;;5069703;28;20462;-62
2021/04/20 01:57:22;;;;;;;220.57;203.33;;;6.00;99.90;;;;;;5056821;28;20542;-61
2021/04/20 01:59:49;;;;;;;113.37;82.73;;;6.00;99.90;;;;;;5072068;28;21018;-62
2021/04/20 02:02:19;;;;;;;172.27;156.50;;;5.90;99.90;;;;;;5070313;28;20458;-62
2021/04/20 02:04:45;;;;;;;124.83;107.07;;;5.90;99.90;;;;;;5071453;28;20545;-62
2021/04/20 02:07:17;;;;;;;160.40;145.30;;;5.90;99.90;;;;;;5072494;28;20556;-61
2021/04/20 02:09:43;;;;;;;195.40;179.13;;;5.90;99.90;;;;;;5070701;28;20482;-62
2021/04/20 02:12:11;;;;;;;140.23;125.70;;;5.90;99.90;;;;;;5057790;28;20916;-61
2021/04/20 02:14:37;;;;;;;135.93;121.23;;;5.90;99.90;;;;;;5071249;28;20458;-62
2021/04/20 02:17:05;;;;;;;181.57;165.70;;;5.90;99.90;;;;;;5071168;28;20454;-61
2021/04/20 02:19:35;;;;;;;181.63;165.67;;;5.90;99.90;;;;;;5071914;28;20460;-62
2021/04/20 02:22:02;;;;;;;150.07;135.33;;;5.90;99.90;;;;;;5070069;28;20934;-62
2021/04/20 02:24:28;;;;;;;147.33;132.67;;;5.90;99.90;;;;;;5072456;28;20454;-62
2021/04/20 02:26:57;;;;;;;174.87;159.10;;;5.90;99.90;;;;;;5075591;28;20864;-62
2021/04/20 02:29:24;;;;;;;158.43;143.33;;;5.90;99.90;;;;;;5074940;28;20483;-62
2021/04/20 02:31:51;;;;;;;156.67;141.60;;;5.80;99.90;;;;;;5075359;28;20956;-63
2021/04/20 02:34:20;;;;;;;107.17;63.37;;;5.90;99.90;;;;;;5055713;28;20590;-61
2021/04/20 02:36:48;;;;;;;166.07;151.23;;;5.90;99.90;;;;;;5055684;28;20444;-61
2021/04/20 02:39:16;;;;;;;111.57;76.03;;;5.90;99.90;;;;;;5067842;28;20459;-62
2021/04/20 02:41:45;;;;;;;87.30;30.00;;;5.90;99.90;;;;;;5055459;28;20798;-62
2021/04/20 02:44:11;;;;;;;91.60;36.77;;;5.90;99.90;;;;;;5073600;28;20970;-62
2021/04/20 02:46:38;;;;;;;101.93;56.90;;;5.90;99.90;;;;;;5075622;28;20449;-61
2021/04/20 02:49:05;;;;;;;90.17;37.50;;;5.90;99.90;;;;;;5074004;28;20819;-62
2021/04/20 02:51:34;;;;;;;88.03;34.43;;;5.90;99.90;;;;;;5073938;28;20456;-63
2021/04/20 02:54:01;;;;;;;108.93;65.80;;;6.00;99.90;;;;;;5074275;28;20458;-62
2021/04/20 02:56:29;;;;;;;94.87;51.83;;;6.00;99.90;;;;;;5075187;28;20454;-62
2021/04/20 02:58:58;;;;;;;101.73;57.43;;;6.00;99.90;;;;;;5074366;28;20454;-62
2021/04/20 03:01:27;;;;;;;89.43;42.63;;;6.00;99.90;;;;;;5074773;28;20448;-63
2021/04/20 03:03:54;;;;;;;228.00;210.03;;;6.00;99.90;;;;;;5074910;28;20455;-61
2021/04/20 03:06:20;;;;;;;116.47;91.10;;;6.00;99.90;;;;;;5074859;28;20445;-61
2021/04/20 03:08:49;;;;;;;92.60;47.47;;;6.00;99.90;;;;;;5072668;28;20504;-62
2021/04/20 03:11:16;;;;;;;139.70;125.57;;;6.00;99.90;;;;;;5054714;28;20490;-62
2021/04/20 03:13:44;;;;;;;88.17;39.33;;;6.00;99.90;;;;;;5065105;28;20454;-61
2021/04/20 03:16:12;;;;;;;103.87;55.97;;;6.00;99.90;;;;;;5075000;28;20449;-62
2021/04/20 03:18:39;;;;;;;96.87;37.47;;;6.10;99.90;;;;;;5073692;28;20985;-62
2021/04/20 03:21:08;;;;;;;114.10;85.03;;;6.10;99.90;;;;;;5054641;28;20455;-61
2021/04/20 03:23:35;;;;;;;106.93;67.70;;;6.00;99.90;;;;;;5067890;28;21076;-62
2021/04/20 03:26:03;;;;;;;84.20;28.77;;;6.00;99.90;;;;;;5074802;28;20447;-61
2021/04/20 03:28:30;;;;;;;105.83;72.50;;;6.00;99.90;;;;;;5073915;28;20485;-62
2021/04/20 03:30:59;;;;;;;93.43;36.27;;;5.90;99.90;;;;;;5074822;28;20527;-62
2021/04/20 03:33:31;;;;;;;110.20;83.67;;;5.90;99.90;;;;;;5074161;28;20860;-62
2021/04/20 03:36:02;;;;;;;91.73;45.03;;;5.90;99.90;;;;;;5073576;28;21040;-64
2021/04/20 03:38:35;;;;;;;113.13;89.23;;;5.90;99.90;;;;;;5062055;28;20457;-63
2021/04/20 03:41:09;;;;;;;120.60;106.17;;;5.90;99.90;;;;;;5062579;28;20450;-63
2021/04/20 03:43:38;;;;;;;108.43;81.20;;;5.90;99.90;;;;;;5074440;28;20557;-62
2021/04/20 03:46:13;;;;;;;85.50;39.57;;;5.90;99.90;;;;;;5073991;28;20451;-64
2021/04/20 03:48:43;;;;;;;98.83;64.70;;;5.80;99.90;;;;;;5060940;28;20457;-62
2021/04/20 03:51:13;;;;;;;92.87;56.20;;;5.70;99.90;;;;;;5062396;28;20508;-63
2021/04/20 03:53:42;;;;;;;91.00;50.40;;;5.70;99.90;;;;;;5073956;28;20952;-62
2021/04/20 03:56:11;;;;;;;92.10;39.83;;;5.70;99.90;;;;;;5074346;28;20452;-62
2021/04/20 03:58:38;;;;;;;88.43;39.87;;;5.70;99.90;;;;;;5067486;28;20521;-63
2021/04/20 04:01:08;;;;;;;92.00;52.00;;;5.60;99.90;;;;;;5074377;28;20452;-64
2021/04/20 04:03:36;;;;;;;95.23;48.07;;;5.60;99.90;;;;;;5073953;28;20454;-63
2021/04/20 04:06:05;;;;;;;103.50;70.33;;;5.60;99.90;;;;;;5074269;28;20996;-62
2021/04/20 04:08:35;;;;;;;98.80;62.43;;;5.60;99.90;;;;;;5073016;28;20453;-64
2021/04/20 04:11:04;;;;;;;90.80;45.43;;;5.60;99.90;;;;;;5073827;28;20527;-62
2021/04/20 04:13:32;;;;;;;106.37;86.53;;;5.60;99.90;;;;;;5073556;28;20988;-62
2021/04/20 04:16:01;;;;;;;91.30;45.17;;;5.60;99.90;;;;;;5073732;28;20458;-62
2021/04/20 04:18:30;;;;;;;95.13;49.73;;;5.60;99.90;;;;;;5073064;28;20537;-62
2021/04/20 04:20:59;;;;;;;84.37;35.73;;;5.60;99.90;;;;;;5073724;28;20966;-63
2021/04/20 04:23:30;;;;;;;97.17;57.37;;;5.60;99.90;;;;;;5073153;28;20455;-62
2021/04/20 04:26:01;;;;;;;88.93;44.60;;;5.50;99.90;;;;;;5073082;28;20695;-63
2021/04/20 04:28:30;;;;;;;88.40;35.07;;;5.50;99.90;;;;;;5062685;28;20822;-65
2021/04/20 04:30:59;;;;;;;93.17;45.47;;;5.50;99.90;;;;;;5055215;28;20487;-63
2021/04/20 04:33:28;;;;;;;90.37;40.73;;;5.50;99.90;;;;;;5072930;28;20471;-63
2021/04/20 04:35:56;;;;;;;102.73;59.43;;;5.50;99.90;;;;;;5073330;28;20453;-62
2021/04/20 04:38:22;;;;;;;95.27;60.70;;;5.50;99.90;;;;;;5071063;28;20451;-63
2021/04/20 04:40:49;;;;;;;92.23;53.20;;;5.50;99.90;;;;;;5052329;28;21057;-65
2021/04/20 04:43:16;;;;;;;95.13;52.40;;;5.60;99.90;;;;;;5071091;28;20459;-63
2021/04/20 04:45:42;;;;;;;94.33;56.77;;;5.60;99.90;;;;;;5073353;28;20447;-62
2021/04/20 04:48:36;;;;;;;91.43;50.87;;;5.60;99.90;;;;;;5058832;28;20455;-63
2021/04/20 04:51:04;;;;;;;106.10;77.33;;;5.60;99.90;;;;;;5060712;28;20498;-62
2021/04/20 04:53:33;;;;;;;86.70;34.33;;;5.60;99.90;;;;;;5072250;28;20951;-62
2021/04/20 04:56:00;;;;;;;80.60;26.17;;;5.70;99.90;;;;;;5072617;28;20234;-63
2021/04/20 04:58:30;;;;;;;79.90;22.83;;;5.80;99.90;;;;;;5058134;28;20459;-65
2021/04/20 05:00:58;;;;;;;81.20;24.50;;;5.70;99.90;;;;;;5052712;28;20455;-64
2021/04/20 05:03:27;;;;;;;872.50;524.63;;;5.70;99.90;;;;;;5052985;28;20520;-54
2021/04/20 05:05:56;;;;;;;1999.90;999.90;;;8.40;99.90;;;;;;5072291;28;20486;-55
2021/04/20 05:08:23;;;;;;;1405.57;732.83;;;10.50;99.90;;;;;;5058676;28;20467;-59
2021/04/20 05:10:49;;;;;;;1999.90;999.90;;;10.70;99.90;;;;;;5071419;28;20820;-57
2021/04/20 05:13:17;;;;;;;1999.90;999.90;;;11.00;99.90;;;;;;5072518;28;20443;-63
2021/04/20 05:15:43;;;;;;;1999.90;999.90;;;11.10;99.90;;;;;;5071331;28;20447;-64
2021/04/20 05:18:10;;;;;;;1999.90;999.90;;;10.40;99.90;;;;;;5061422;28;21009;-63
2021/04/20 05:20:41;;;;;;;1999.90;999.90;;;9.80;99.90;;;;;;5072312;28;20539;-64
2021/04/20 05:23:09;;;;;;;1999.90;999.90;;;9.40;99.90;;;;;;5065929;28;20873;-61
2021/04/20 05:25:36;;;;;;;1999.90;999.90;;;9.00;99.90;;;;;;5072713;28;20787;-61
2021/04/20 05:28:36;;;;;;;622.53;584.23;;;8.70;99.90;;;;;;5067896;28;20868;-60
2021/04/20 05:31:02;;;;;;;1999.90;999.90;;;8.40;99.90;;;;;;5045133;28;21064;-62
2021/04/20 05:33:29;;;;;;;555.97;520.30;;;8.20;99.90;;;;;;5064117;28;20442;-61
2021/04/20 05:36:04;;;;;;;586.47;551.43;;;8.00;99.90;;;;;;5071923;28;20522;-61
2021/04/20 05:38:32;;;;;;;531.23;497.93;;;7.90;99.90;;;;;;5069810;28;20533;-62
2021/04/20 05:40:58;;;;;;;688.13;647.40;;;7.90;99.90;;;;;;5063663;28;20487;-61
2021/04/20 05:43:24;;;;;;;687.63;646.87;;;7.80;99.90;;;;;;5071753;28;20452;-60
2021/04/20 05:45:52;;;;;;;621.43;581.87;;;7.80;99.90;;;;;;5071111;28;20453;-61
2021/04/20 05:48:19;;;;;;;357.60;335.07;;;7.80;99.90;;;;;;5046684;28;20493;-60
2021/04/20 05:50:50;;;;;;;789.33;742.73;;;7.80;99.90;;;;;;5062512;28;20589;-62
2021/04/20 05:53:16;;;;;;;688.20;645.90;;;7.80;99.90;;;;;;5070473;28;20470;-59
2021/04/20 05:55:43;;;;;;;563.27;529.27;;;7.80;99.90;;;;;;5071009;28;20459;-60
2021/04/20 05:58:10;;;;;;;608.87;571.60;;;7.90;99.90;;;;;;5069573;28;20458;-58
2021/04/20 06:00:42;;;;;;;549.37;516.37;;;7.90;99.90;;;;;;5058650;28;20459;-63
2021/04/20 06:03:08;;;;;;;620.73;582.30;;;8.00;99.90;;;;;;5069715;28;20483;-63
2021/04/20 06:05:35;;;;;;;572.80;537.87;;;8.10;99.90;;;;;;5071798;28;20448;-60
2021/04/20 06:08:05;;;;;;;502.03;469.43;;;8.20;99.90;;;;;;5085260;28;20457;-61
2021/04/20 06:10:32;;;;;;;471.43;444.73;;;8.30;99.90;;;;;;5069664;28;20905;-63
2021/04/20 06:13:00;;;;;;;544.10;513.17;;;8.40;99.90;;;;;;5069256;28;20454;-62
2021/04/20 06:15:27;;;;;;;603.30;565.73;;;8.50;99.90;;;;;;5065036;28;20447;-67
2021/04/20 06:17:55;;;;;;;698.00;656.30;;;8.70;99.90;;;;;;5062366;28;20449;-61
2021/04/20 06:20:23;;;;;;;672.03;632.10;;;8.80;99.90;;;;;;5070196;28;20469;-59
2021/04/20 06:22:51;;;;;;;720.33;675.37;;;8.90;99.90;;;;;;5068846;28;20957;-59
2021/04/20 06:25:19;;;;;;;566.17;531.33;;;9.00;99.90;;;;;;5069917;28;20523;-60
2021/04/20 06:27:47;;;;;;;638.60;598.03;;;9.10;99.90;;;;;;5070510;28;20449;-60
2021/04/20 06:30:16;;;;;;;494.43;461.17;;;9.20;99.90;;;;;;5069326;28;20475;-61
2021/04/20 06:32:44;;;;;;;455.80;423.97;;;9.30;99.90;;;;;;5068162;28;20461;-60
2021/04/20 06:35:14;;;;;;;723.47;674.87;;;9.40;99.90;;;;;;5063915;28;20534;-63
2021/04/20 06:37:42;;;;;;;570.43;532.60;;;9.50;99.90;;;;;;5069766;28;20450;-60
2021/04/20 06:40:11;;;;;;;619.83;579.73;;;9.60;99.90;;;;;;5065047;28;20451;-60
2021/04/20 06:42:41;;;;;;;623.00;586.00;;;9.80;99.90;;;;;;5065568;28;20449;-60
2021/04/20 06:45:12;;;;;;;737.50;692.87;;;10.00;99.90;;;;;;5065969;28;20550;-60
2021/04/20 06:47:52;;;;;;;1407.83;734.30;;;10.20;99.90;;;;;;5061665;28;20446;-61
2021/04/20 06:50:19;;;;;;;1999.90;999.90;;;10.30;99.90;;;;;;5068959;28;20557;-63
2021/04/20 06:52:50;;;;;;;1999.90;999.90;;;10.50;99.90;;;;;;5069261;28;20470;-60
2021/04/20 06:55:24;;;;;;;1999.90;999.90;;;10.60;99.90;;;;;;5070964;28;20541;-60
2021/04/20 06:58:03;;;;;;;1999.90;999.90;;;10.80;99.90;;;;;;5069912;28;20465;-60
2021/04/20 07:00:35;;;;;;;1999.90;999.90;;;10.90;99.90;;;;;;5069785;28;20454;-61
2021/04/20 07:03:15;;;;;;;1999.90;999.90;;;11.30;99.90;;;;;;5070078;28;20473;-62
2021/04/20 07:05:47;;;;;;;1999.90;999.90;;;11.60;99.90;;;;;;5069559;28;20462;-61
2021/04/20 07:08:20;;;;;;;1999.90;999.90;;;11.90;99.90;;;;;;5069952;28;20450;-66
2021/04/20 07:10:48;;;;;;;1999.90;999.90;;;12.10;99.90;;;;;;5069560;28;20497;-60
2021/04/20 07:13:19;;;;;;;1999.90;999.90;;;12.10;99.90;;;;;;5073415;28;20451;-61
2021/04/20 07:15:51;;;;;;;1999.90;999.90;;;12.40;99.90;;;;;;5073077;28;20477;-64
2021/04/20 07:18:56;;;;;;;1999.90;999.90;;;12.70;99.90;;;;;;5073669;28;20478;-64
2021/04/20 07:21:47;;;;;;;425.80;386.50;;;13.10;99.90;;;;;;5073586;28;20474;-62
2021/04/20 07:24:16;;;;;;;604.60;570.77;;;13.70;99.90;;;;;;5073547;28;20545;-64
2021/04/20 07:27:06;;;;;;;36.17;18.53;;;14.20;99.90;;;;;;5073215;28;20457;-63
2021/04/20 07:29:39;;;;;;;22.53;13.43;;;14.60;99.90;;;;;;5055621;28;20751;-61
2021/04/20 07:32:37;;;;;;;18.67;12.43;;;15.20;99.90;;;;;;5071314;28;20447;-62
2021/04/20 07:35:14;;;;;;;15.47;11.70;;;15.70;99.90;;;;;;5061376;28;20455;-64
2021/04/20 07:37:45;;;;;;;17.13;11.50;;;16.00;99.90;;;;;;5073477;28;20465;-65
2021/04/20 07:40:30;;;;;;;15.00;10.73;;;16.60;99.90;;;;;;5073663;28;20455;-61
2021/04/20 07:43:15;;;;;;;18.03;12.80;;;17.60;99.90;;;;;;5072139;28;20466;-66
2021/04/20 07:45:52;;;;;;;14.40;10.27;;;18.30;99.90;;;;;;5073572;28;20580;-63
2021/04/20 07:48:30;;;;;;;17.97;12.20;;;18.70;99.90;;;;;;5073265;28;20530;-63
2021/04/20 07:51:00;;;;;;;17.87;11.37;;;18.40;99.90;;;;;;5073073;28;20487;-62
2021/04/20 07:53:39;;;;;;;14.30;10.83;;;19.90;99.90;;;;;;5072427;28;20601;-64
2021/04/20 07:56:13;;;;;;;12.23;9.60;;;21.40;99.90;;;;;;5073098;28;20447;-67
2021/04/20 07:58:44;;;;;;;13.37;10.43;;;22.20;99.90;;;;;;5073033;28;20443;-65
2021/04/20 08:01:42;;;;;;;14.30;11.40;;;23.10;99.90;;;;;;5071463;28;20868;-62
2021/04/20 08:04:19;;;;;;;16.37;12.30;;;23.90;96.70;;;;;;5071717;28;20460;-62
2021/04/20 08:06:47;;;;;;;16.13;13.77;;;24.00;91.90;;;;;;5071568;28;20473;-62
2021/04/20 08:09:19;;;;;;;14.67;12.23;;;23.90;86.40;;;;;;5072810;28;20541;-61
2021/04/20 08:11:49;;;;;;;13.83;10.77;;;24.30;83.70;;;;;;5072804;28;20478;-65
2021/04/20 08:14:24;;;;;;;14.40;11.80;;;24.60;84.50;;;;;;5071004;28;20542;-63
2021/04/20 08:16:54;;;;;;;14.90;9.70;;;25.10;81.00;;;;;;5072884;28;20921;-63
2021/04/20 08:19:25;;;;;;;14.83;12.17;;;25.40;79.80;;;;;;5071680;28;21055;-64
2021/04/20 08:21:52;;;;;;;14.40;11.70;;;25.60;73.90;;;;;;5072048;28;20901;-65
2021/04/20 08:24:24;;;;;;;13.80;10.93;;;25.30;74.70;;;;;;5072696;28;20885;-60
2021/04/20 08:26:56;;;;;;;16.13;14.37;;;26.30;75.50;;;;;;5072668;28;20434;-62
2021/04/20 08:29:27;;;;;;;16.07;12.97;;;26.50;67.40;;;;;;5071806;28;20450;-62
2021/04/20 08:31:58;;;;;;;15.20;13.33;;;25.30;67.50;;;;;;5071120;28;20483;-62
2021/04/20 08:34:34;;;;;;;16.90;13.47;;;26.10;73.00;;;;;;5059376;28;20455;-59
2021/04/20 08:37:19;;;;;;;13.27;10.70;;;25.70;69.10;;;;;;5062995;28;20454;-61
2021/04/20 08:39:57;;;;;;;12.43;10.10;;;27.00;68.30;;;;;;5070658;28;20451;-64
2021/04/20 08:42:33;;;;;;;14.60;12.20;;;27.60;65.50;;;;;;5072285;28;20529;-62
2021/04/20 08:45:07;;;;;;;14.50;13.00;;;27.10;63.70;;;;;;5071550;28;20455;-63
2021/04/20 08:47:40;;;;;;;14.33;12.60;;;27.00;65.30;;;;;;5072298;28;20451;-61
2021/04/20 08:50:12;;;;;;;13.03;11.40;;;27.30;67.90;;;;;;5071504;28;20495;-62
2021/04/20 08:52:48;;;;;;;12.73;11.37;;;27.50;61.90;;;;;;5071728;28;20451;-62
2021/04/20 08:55:39;;;;;;;14.20;12.70;;;27.90;61.50;;;;;;5071149;28;20451;-63
2021/04/20 08:58:25;;;;;;;14.30;12.80;;;28.30;60.30;;;;;;5071986;28;20507;-62
2021/04/20 09:01:02;;;;;;;15.13;12.47;;;27.00;62.10;;;;;;5061303;28;20462;-62
2021/04/20 09:03:38;;;;;;;18.37;14.60;;;27.60;59.70;;;;;;5061472;28;20826;-62
2021/04/20 09:06:09;;;;;;;17.60;14.73;;;28.20;60.50;;;;;;5070995;28;20464;-63
2021/04/20 09:08:37;;;;;;;15.43;13.70;;;28.70;60.50;;;;;;5071382;28;20508;-60
2021/04/20 09:11:12;;;;;;;15.70;11.63;;;28.80;57.10;;;;;;5071330;28;20479;-62
2021/04/20 09:13:44;;;;;;;14.83;13.23;;;28.80;59.40;;;;;;5071349;28;20439;-62
2021/04/20 09:16:13;;;;;;;16.80;14.03;;;29.70;56.90;;;;;;5071828;28;20447;-63
2021/04/20 09:18:43;;;;;;;14.33;12.80;;;29.30;56.50;;;;;;5070641;28;20459;-60
2021/04/20 09:21:14;;;;;;;12.73;11.43;;;29.20;57.60;;;;;;5071627;28;20538;-62
2021/04/20 09:23:55;;;;;;;17.13;15.33;;;29.60;57.20;;;;;;5071476;28;20982;-62
2021/04/20 09:26:32;;;;;;;14.57;12.93;;;28.60;54.10;;;;;;5071176;28;20536;-64
2021/04/20 09:29:08;;;;;;;15.73;14.00;;;27.50;56.30;;;;;;5069295;28;21070;-65
2021/04/20 09:31:40;;;;;;;15.80;12.07;;;28.80;56.90;;;;;;5070828;28;20577;-64
2021/04/20 09:34:09;;;;;;;13.33;11.70;;;30.30;55.80;;;;;;5070108;28;20451;-64
2021/04/20 09:36:39;;;;;;;13.77;12.17;;;31.40;55.70;;;;;;5071231;28;20542;-65
2021/04/20 09:39:07;;;;;;;18.23;14.70;;;31.70;56.60;;;;;;5070939;28;20990;-63
2021/04/20 09:41:39;;;;;;;15.03;13.53;;;29.70;53.90;;;;;;5071141;28;20451;-65
2021/04/20 09:44:16;;;;;;;14.67;12.87;;;30.20;57.00;;;;;;5070707;28;21016;-63
2021/04/20 09:46:53;;;;;;;14.93;13.40;;;30.50;55.60;;;;;;5071105;28;20519;-62
2021/04/20 09:49:35;;;;;;;13.73;11.90;;;31.40;55.50;;;;;;5070770;28;20447;-61
2021/04/20 09:52:08;;;;;;;16.27;14.67;;;31.80;56.20;;;;;;5070601;28;20486;-62
2021/04/20 09:54:42;;;;;;;12.47;11.17;;;31.90;53.00;;;;;;5069809;28;20439;-64
2021/04/20 09:57:13;;;;;;;13.73;12.43;;;32.80;51.20;;;;;;5070985;28;20537;-63
2021/04/20 09:59:53;;;;;;;16.50;13.40;;;31.60;52.60;;;;;;5051074;28;20452;-64
2021/04/20 10:02:40;;;;;;;14.20;11.50;;;29.50;51.90;;;;;;5061540;28;20822;-65
2021/04/20 10:05:13;;;;;;;15.77;14.07;;;27.50;52.40;;;;;;5070794;28;20453;-65
2021/04/20 10:08:09;;;;;;;13.27;11.70;;;25.90;54.80;;;;;;5069128;28;20448;-63
2021/04/20 10:10:47;;;;;;;15.80;12.40;;;24.50;55.60;;;;;;5030269;28;20569;-64
2021/04/20 10:13:36;;;;;;;17.10;11.77;;;23.70;56.10;;;;;;5064892;28;20480;-64
2021/04/20 10:16:09;;;;;;;16.10;12.07;;;23.20;60.60;;;;;;5067388;28;20462;-64
2021/04/20 10:18:57;;;;;;;13.63;11.73;;;23.30;58.30;;;;;;5069302;28;20813;-63
2021/04/20 10:21:29;;;;;;;15.57;12.43;;;24.10;59.80;;;;;;5067907;28;20450;-62
2021/04/20 10:24:04;;;;;;;16.70;12.97;;;24.40;60.40;;;;;;5070009;28;20535;-63
2021/04/20 10:26:43;;;;;;;17.00;14.67;;;24.50;58.30;;;;;;5070143;28;20443;-65
2021/04/20 10:29:19;;;;;;;16.23;12.97;;;26.30;59.60;;;;;;5058181;28;20515;-65
2021/04/20 10:31:54;;;;;;;14.00;12.27;;;27.90;54.10;;;;;;5070155;28;20522;-63
2021/04/20 10:34:21;;;;;;;13.40;11.67;;;29.50;56.40;;;;;;5070049;28;20485;-64
2021/04/20 10:36:53;;;;;;;12.87;11.47;;;30.60;54.50;;;;;;5069175;28;20822;-62
2021/04/20 10:39:23;;;;;;;14.80;13.30;;;32.80;53.00;;;;;;5068017;28;20435;-63
2021/04/20 10:41:51;;;;;;;14.03;12.63;;;32.90;49.70;;;;;;5067985;28;20455;-65
2021/04/20 10:44:23;;;;;;;15.90;14.30;;;33.80;49.20;;;;;;5061955;28;20455;-64
2021/04/20 10:46:55;;;;;;;17.10;14.77;;;33.10;48.10;;;;;;5076748;28;20967;-63
2021/04/20 10:49:23;;;;;;;17.53;14.60;;;33.30;52.00;;;;;;5078040;28;20593;-64
2021/04/20 10:51:54;;;;;;;15.63;14.07;;;33.10;49.50;;;;;;5073757;28;20528;-63
2021/04/20 10:54:23;;;;;;;13.97;12.57;;;31.80;48.30;;;;;;5074011;28;20798;-62
2021/04/20 10:56:56;;;;;;;14.83;13.33;;;30.10;50.10;;;;;;5073731;28;20833;-65
2021/04/20 10:59:44;;;;;;;18.70;15.17;;;28.30;51.80;;;;;;5068375;28;20869;-62
2021/04/20 11:02:18;;;;;;;17.53;12.90;;;27.30;51.10;;;;;;5069359;28;20530;-61
2021/04/20 11:04:48;;;;;;;20.43;16.90;;;25.80;53.20;;;;;;5083985;28;20908;-64
2021/04/20 11:07:21;;;;;;;16.87;14.13;;;24.60;53.80;;;;;;5074896;28;20451;-64
2021/04/20 11:09:57;;;;;;;16.23;13.97;;;24.00;57.50;;;;;;5073730;28;20867;-66
2021/04/20 11:12:24;;;;;;;16.00;13.60;;;23.50;55.80;;;;;;5073638;28;20529;-65
2021/04/20 11:14:53;;;;;;;15.50;13.10;;;23.30;57.50;;;;;;5064474;28;20463;-64
2021/04/20 11:17:31;;;;;;;19.03;13.77;;;24.30;59.20;;;;;;5068455;28;20534;-59
2021/04/20 11:20:11;;;;;;;14.03;12.00;;;26.30;57.20;;;;;;5071007;28;20450;-62
2021/04/20 11:22:42;;;;;;;15.23;13.27;;;29.60;56.80;;;;;;5067508;28;20540;-62
2021/04/20 11:25:19;;;;;;;14.70;13.20;;;30.30;50.40;;;;;;5055600;28;20447;-61
2021/04/20 11:27:47;;;;;;;11.77;10.57;;;28.90;51.60;;;;;;5069067;28;20469;-63
2021/04/20 11:30:16;;;;;;;15.07;12.27;;;28.30;53.90;;;;;;5071452;28;20530;-64
2021/04/20 11:32:48;;;;;;;14.07;11.77;;;27.40;53.50;;;;;;5072643;28;20451;-63
2021/04/20 11:35:18;;;;;;;13.43;11.27;;;26.70;52.50;;;;;;5073027;28;20534;-63
2021/04/20 11:37:46;;;;;;;13.87;12.37;;;26.30;54.70;;;;;;5073708;28;20451;-61
2021/04/20 11:40:18;;;;;;;12.40;11.10;;;27.90;55.50;;;;;;5073440;28;20532;-64
2021/04/20 11:42:48;;;;;;;14.47;12.00;;;30.50;53.70;;;;;;5072561;28;20466;-63
2021/04/20 11:45:17;;;;;;;12.83;11.03;;;32.90;51.10;;;;;;5072951;28;20470;-62
2021/04/20 11:48:01;;;;;;;14.30;12.90;;;32.60;48.60;;;;;;5072401;28;20956;-60
2021/04/20 11:50:31;;;;;;;12.83;11.10;;;30.80;48.40;;;;;;5067099;28;20483;-61
2021/04/20 11:53:36;;;;;;;13.07;11.67;;;29.30;49.30;;;;;;5071634;28;20455;-62
2021/04/20 11:56:04;;;;;;;11.43;10.20;;;27.40;49.90;;;;;;5065714;28;20462;-60
2021/04/20 11:58:32;;;;;;;11.20;8.50;;;25.90;52.50;;;;;;5068046;28;20451;-60
2021/04/20 12:01:09;;;;;;;12.43;10.90;;;25.30;52.30;;;;;;5071639;28;20991;-61
2021/04/20 12:03:36;;;;;;;13.13;9.93;;;24.90;54.40;;;;;;5067355;28;21156;-61
2021/04/20 12:06:04;;;;;;;16.00;12.17;;;24.00;53.30;;;;;;5064742;28;20534;-59
2021/04/20 12:08:33;;;;;;;13.27;11.87;;;23.30;55.40;;;;;;5072620;28;20471;-61
2021/04/20 12:11:01;;;;;;;12.60;9.63;;;23.00;56.40;;;;;;5070892;28;20502;-60
2021/04/20 12:13:33;;;;;;;12.53;9.93;;;22.40;56.10;;;;;;5072163;28;20504;-61
2021/04/20 12:16:04;;;;;;;14.43;10.87;;;22.40;56.60;;;;;;5071052;28;20505;-62
2021/04/20 12:18:32;;;;;;;12.03;10.10;;;22.70;57.90;;;;;;5072983;28;20450;-63
2021/04/20 12:21:05;;;;;;;17.90;11.00;;;22.80;56.90;;;;;;5072198;28;20598;-60
2021/04/20 12:26:41;;;;;;;12.40;10.50;;;23.10;55.40;;;;;;5130193;22;20489;-61
2021/04/20 12:29:12;;;;;;;12.80;9.67;;;24.40;57.90;;;;;;5079991;28;20596;-62
2021/04/20 12:31:40;;;;;;;12.00;10.27;;;25.20;56.00;;;;;;5090476;28;20482;-64
2021/04/20 12:34:07;;;;;;;11.50;9.10;;;27.00;57.20;;;;;;5091774;28;20451;-63
2021/04/20 12:36:38;;;;;;;12.27;9.97;;;29.80;56.70;;;;;;5090399;28;20456;-60
2021/04/20 12:39:07;;;;;;;14.30;12.40;;;30.80;51.80;;;;;;5090441;28;20454;-63
2021/04/20 12:41:35;;;;;;;15.87;12.17;;;29.70;49.50;;;;;;5091240;28;20454;-63
2021/04/20 12:44:06;;;;;;;13.10;11.03;;;28.60;50.50;;;;;;5091889;28;20446;-60
2021/04/20 12:46:35;;;;;;;12.43;11.13;;;29.40;51.60;;;;;;5092034;28;20526;-61
2021/04/20 12:49:05;;;;;;;12.40;10.40;;;31.90;50.30;;;;;;5079786;28;20443;-61